Time;durP1;ratioP1;P1;durP2;ratioP2;P2;SDS_P1;SDS_P2;PMS_P1;PMS_P2;Temp;Humidity;BMP_temperature;BMP_pressure;BME280_temperature;BME280_humidity;BME280_pressure;Samples;Min_cycle;Max_cycle;Signal;HPM_P1;HPM_P2
2022/02/10 00:16:36;;;;;;;10.18;6.55;;;;;;;8.86;84.40;102099.66;5046687;28;20099;-77
2022/02/10 00:18:59;;;;;;;12.55;6.95;;;;;;;8.86;84.30;102092.47;5044272;28;20034;-77
2022/02/10 00:22:12;;;;;;;10.73;6.10;;;;;;;8.91;84.31;102091.84;5047531;28;20044;-77
2022/02/10 00:35:24;;;;;;;11.95;7.90;;;;;;;8.93;83.30;102105.81;5049665;28;20043;-77
2022/02/10 00:37:57;;;;;;;11.38;6.82;;;;;;;8.87;83.60;102107.47;5048788;28;20530;-78
2022/02/10 00:40:30;;;;;;;8.18;5.00;;;;;;;8.79;83.53;102099.63;5045771;28;20023;-77
2022/02/10 00:42:57;;;;;;;7.90;4.50;;;;;;;8.76;83.79;102095.50;5051385;28;20028;-77
2022/02/10 00:45:25;;;;;;;9.38;4.15;;;;;;;8.73;83.44;102101.28;5049714;28;20036;-77
2022/02/10 00:47:56;;;;;;;7.63;3.78;;;;;;;8.66;84.22;102092.44;5049155;28;20024;-77
2022/02/10 00:50:24;;;;;;;5.40;3.70;;;;;;;8.66;84.27;102092.44;5050549;28;20659;-77
2022/02/10 00:52:57;;;;;;;7.78;3.55;;;;;;;8.57;84.66;102085.59;5049358;28;20023;-77
2022/02/10 00:55:27;;;;;;;9.90;4.03;;;;;;;8.56;85.20;102080.47;5041018;28;20056;-77
2022/02/10 00:57:53;;;;;;;6.55;3.72;;;;;;;8.52;85.57;102084.56;5043614;28;20118;-77
2022/02/10 01:14:29;;;;;;;7.80;4.63;;;;;;;8.53;85.37;102089.72;5044267;28;20039;-77
2022/02/10 01:30:20;;;;;;;5.88;3.13;;;;;;;8.47;84.98;102085.19;5050322;28;20035;-77
2022/02/10 01:32:49;;;;;;;6.18;3.47;;;;;;;8.54;84.99;102082.53;5068844;28;20141;-77
2022/02/10 01:35:20;;;;;;;7.05;3.67;;;;;;;8.55;84.76;102073.47;5047182;28;20021;-77
2022/02/10 01:37:46;;;;;;;5.28;3.13;;;;;;;8.57;84.33;102074.91;5046960;28;20017;-77
2022/02/10 01:40:20;;;;;;;7.57;3.90;;;;;;;8.60;84.24;102061.16;5049504;28;20090;-77
2022/02/10 02:04:41;;;;;;;10.75;6.07;;;;;;;8.55;83.63;102047.59;5042454;28;20085;-77
2022/02/10 02:07:06;;;;;;;12.27;6.13;;;;;;;8.54;83.57;102047.78;5061985;28;20537;-77
2022/02/10 02:09:32;;;;;;;13.43;6.32;;;;;;;8.52;83.75;102042.66;5048180;28;20089;-77
2022/02/10 02:11:57;;;;;;;11.77;6.85;;;;;;;8.51;83.95;102038.34;5051947;28;20079;-77
2022/02/10 02:14:25;;;;;;;13.50;7.32;;;;;;;8.51;83.86;102038.34;5046887;28;20078;-77
2022/02/10 02:16:56;;;;;;;12.07;6.85;;;;;;;8.49;83.92;102043.06;5054140;28;20021;-77
2022/02/10 02:19:22;;;;;;;10.60;6.38;;;;;;;8.50;84.03;102052.72;5046869;28;20044;-77
2022/02/10 02:21:48;;;;;;;11.73;7.57;;;;;;;8.50;83.66;102050.06;5049197;28;20020;-77
2022/02/10 02:24:20;;;;;;;12.13;6.80;;;;;;;8.50;83.88;102050.06;5050077;28;20595;-78
2022/02/10 02:26:53;;;;;;;13.00;6.90;;;;;;;8.51;83.87;102050.88;5047371;28;20036;-78
2022/02/10 02:29:27;;;;;;;11.38;6.78;;;;;;;8.49;83.66;102043.06;5055163;28;20375;-78
2022/02/10 02:31:59;;;;;;;11.50;6.97;;;;;;;8.49;83.80;102053.75;5047846;28;20124;-79
2022/02/10 03:07:17;;;;;;;12.80;6.05;;;;;;;8.26;85.61;102015.84;5049767;28;20284;-78
2022/02/10 03:09:54;;;;;;;11.80;6.45;;;;;;;8.26;85.50;102013.19;5046310;28;20035;-78
2022/02/10 03:12:20;;;;;;;10.90;6.65;;;;;;;8.25;85.83;102006.19;5048574;28;20083;-79
2022/02/10 03:14:49;;;;;;;13.35;5.72;;;;;;;8.22;86.46;102004.75;5048624;28;20440;-78
2022/02/10 03:22:59;;;;;;;10.20;5.47;;;;;;;8.28;85.72;101998.63;5050387;28;20998;-78
2022/02/10 04:03:52;;;;;;;7.03;3.67;;;;;;;8.15;85.92;101956.69;5053465;28;20478;-77
2022/02/10 04:06:45;;;;;;;7.20;3.80;;;;;;;8.11;86.58;101957.31;5047845;28;20040;-77
2022/02/10 04:30:52;;;;;;;8.45;4.70;;;;;;;8.05;87.07;101952.75;5049654;28;20559;-77
2022/02/10 04:59:36;;;;;;;8.77;4.90;;;;;;;8.14;85.63;101927.53;5052690;28;20113;-77
2022/02/10 05:02:26;;;;;;;9.13;5.18;;;;;;;8.15;85.62;101924.66;5050304;28;20394;-77
2022/02/10 05:23:21;;;;;;;15.20;7.47;;;;;;;7.99;85.84;101911.69;5051878;28;20127;-77
2022/02/10 05:34:01;;;;;;;17.60;9.20;;;;;;;7.98;86.17;101902.03;5049234;28;20925;-75
2022/02/10 05:36:31;;;;;;;22.52;10.73;;;;;;;7.98;85.92;101891.38;5042514;28;20028;-75
2022/02/10 05:39:10;;;;;;;19.15;10.23;;;;;;;7.99;86.11;101895.69;5047340;28;20047;-75
2022/02/10 05:55:21;;;;;;;21.75;11.48;;;;;;;7.97;86.13;101881.72;5047908;28;20043;-78
2022/02/10 05:57:59;;;;;;;;;;;;;;;7.84;86.37;101879.84;5047663;28;20548;-78
2022/02/10 06:49:19;;;;;;;22.77;12.27;;;;;;;7.86;85.75;101840.44;5050720;28;20039;-78
2022/02/10 06:52:08;;;;;;;25.10;12.75;;;;;;;7.82;86.09;101838.38;5061563;28;20082;-78
2022/02/10 07:10:58;;;;;;;25.25;14.23;;;;;;;7.82;86.90;101817.84;5051681;28;20141;-77
2022/02/10 07:44:59;;;;;;;31.83;13.63;;;;;;;7.88;87.02;101786.84;5056624;28;20534;-78
2022/02/10 07:52:09;;;;;;;25.20;13.32;;;;;;;7.91;87.08;101791.81;5050559;28;20113;-78
2022/02/10 07:54:44;;;;;;;25.50;13.50;;;;;;;7.92;86.80;101789.97;5054732;28;20087;-78
2022/02/10 08:26:08;;;;;;;27.02;13.13;;;;;;;7.93;87.15;101781.75;5055109;28;20039;-77
2022/02/10 08:28:40;;;;;;;27.55;13.63;;;;;;;7.98;86.43;101763.25;5045081;28;20035;-77
2022/02/10 08:57:05;;;;;;;21.13;11.30;;;;;;;8.01;86.54;101714.81;5050728;28;20047;-77
2022/02/10 09:13:19;;;;;;;20.58;11.23;;;;;;;8.04;86.19;101713.56;5044561;28;20063;-77
2022/02/10 10:02:15;;;;;;;13.30;7.90;;;;;;;8.18;84.91;101678.63;5023603;28;20486;-51
2022/02/10 10:04:56;;;;;;;13.73;6.85;;;;;;;8.20;84.83;101681.09;5022496;28;20034;-54
2022/02/10 10:07:29;;;;;;;11.70;7.07;;;;;;;8.24;84.66;101674.31;5022604;28;20510;-53
2022/02/10 10:21:35;;;;;;;12.70;7.25;;;;;;;8.31;84.75;101655.63;5018109;28;20041;-48
2022/02/10 10:44:14;;;;;;;11.38;6.95;;;;;;;8.31;84.33;101645.75;4978558;28;20048;-47
2022/02/10 10:48:36;;;;;;;10.75;6.50;;;;;;;8.36;83.77;101616.59;5026363;28;20040;-48
2022/02/10 10:52:15;;;;;;;11.18;6.07;;;;;;;8.41;83.39;101610.59;5030108;28;20087;-47
2022/02/10 11:41:53;;;;;;;10.15;6.82;;;;;;;8.73;82.19;101553.50;5028824;28;19928;-50
2022/02/10 12:29:24;;;;;;;14.25;7.75;;;;;;;8.54;81.84;101562.47;5027669;28;20088;-47
2022/02/10 13:23:27;;;;;;;3.72;1.10;;;;;;;7.24;82.24;101616.78;5021121;28;20068;-47
2022/02/10 13:26:59;;;;;;;2.72;0.80;;;;;;;7.22;82.04;101617.00;5020602;28;20028;-48
2022/02/10 14:12:40;;;;;;;2.55;1.30;;;;;;;7.30;81.99;101647.94;5021619;28;20438;-47
2022/02/10 14:15:02;;;;;;;2.90;1.30;;;;;;;7.23;81.79;101647.13;5018401;28;20055;-46
2022/02/10 14:17:36;;;;;;;2.08;1.25;;;;;;;7.25;82.03;101658.41;5045044;28;20108;-49
2022/02/10 14:20:21;;;;;;;2.28;1.17;;;;;;;7.25;82.21;101645.09;5023800;28;20055;-48
2022/02/10 14:23:05;;;;;;;;;;;;;;;7.18;82.01;101645.09;5021561;28;20112;-47
2022/02/10 14:28:27;;;;;;;2.97;2.03;;;;;;;7.30;81.73;101644.47;4981518;28;20085;-48
2022/02/10 14:30:54;;;;;;;4.15;2.50;;;;;;;7.31;81.72;101654.09;5015154;28;20323;-46
2022/02/10 14:33:26;;;;;;;6.35;3.90;;;;;;;7.32;81.82;101656.56;5021343;28;20446;-47
2022/02/10 14:36:00;;;;;;;3.72;2.40;;;;;;;7.35;81.56;101650.00;5024127;28;20033;-46
2022/02/10 15:12:20;;;;;;;1.30;1.20;;;;;;;7.11;82.10;101668.22;5020922;28;20072;-48
2022/02/10 15:17:53;;;;;;;1.98;1.27;;;;;;;7.12;81.95;101655.72;4985057;28;20073;-48
2022/02/10 15:52:44;;;;;;;3.55;1.45;;;;;;;7.10;81.66;101639.13;5023088;28;20261;-48
2022/02/10 16:11:37;;;;;;;5.22;1.65;;;;;;;6.71;82.36;101651.34;5042518;28;20078;-50
2022/02/10 16:19:12;;;;;;;2.15;1.05;;;;;;;6.63;82.67;101651.50;5045573;28;20096;-49
2022/02/10 16:21:42;;;;;;;3.10;1.55;;;;;;;6.63;82.43;101647.00;5038124;28;20025;-50
2022/02/10 16:24:27;;;;;;;3.25;1.42;;;;;;;6.62;82.51;101649.84;5035920;28;20084;-49
2022/02/10 16:26:55;;;;;;;4.32;1.98;;;;;;;6.61;82.25;101661.53;5043239;28;20027;-49
2022/02/10 16:29:27;;;;;;;4.70;2.20;;;;;;;6.59;82.72;101660.91;5039468;28;20094;-52
2022/02/10 16:31:53;;;;;;;4.10;1.92;;;;;;;6.60;82.52;101668.69;5041916;28;20025;-52
2022/02/10 16:34:19;;;;;;;4.55;3.25;;;;;;;6.60;82.68;101667.88;5037493;28;20657;-50
2022/02/10 16:36:46;;;;;;;7.72;3.38;;;;;;;6.59;82.50;101671.56;5036656;28;20036;-51
2022/02/10 16:39:15;;;;;;;7.00;3.88;;;;;;;6.59;82.48;101676.88;5042255;28;20040;-52
2022/02/10 16:41:41;;;;;;;8.50;5.00;;;;;;;6.58;82.99;101678.72;5041821;28;20028;-49
2022/02/10 16:44:07;;;;;;;11.55;5.53;;;;;;;6.59;82.84;101685.69;5040460;28;20461;-49
2022/02/10 16:46:33;;;;;;;13.23;6.18;;;;;;;6.58;82.71;101691.22;5041958;28;20028;-51
2022/02/10 16:48:59;;;;;;;13.27;6.05;;;;;;;6.56;82.69;101698.59;5033652;28;20452;-49
2022/02/10 16:51:26;;;;;;;13.38;5.90;;;;;;;6.54;82.71;101692.66;5030048;28;20257;-51
2022/02/10 16:53:58;;;;;;;15.43;5.72;;;;;;;6.54;82.73;101700.63;5033917;28;20039;-49
2022/02/10 16:56:32;;;;;;;11.18;5.20;;;;;;;6.54;83.19;101700.63;5037533;28;20075;-49
2022/02/10 16:59:13;;;;;;;9.57;4.43;;;;;;;6.52;83.13;101700.00;5040110;28;20033;-49
2022/02/10 17:02:25;;;;;;;6.95;3.15;;;;;;;6.48;82.87;101702.25;5037663;28;20020;-50
2022/02/10 17:04:54;;;;;;;4.88;2.60;;;;;;;6.43;82.93;101710.00;5036412;28;20048;-52
2022/02/10 17:18:28;;;;;;;3.13;1.60;;;;;;;6.35;83.14;101710.16;5035665;28;20064;-52
2022/02/10 17:28:55;;;;;;;3.08;1.40;;;;;;;6.28;83.63;101731.44;5039269;28;20039;-49
2022/02/10 17:31:43;;;;;;;2.63;1.38;;;;;;;6.26;83.74;101736.09;5050145;28;20056;-50
2022/02/10 17:52:56;;;;;;;4.47;1.83;;;;;;;6.21;84.04;101754.50;5031313;28;20429;-49
2022/02/10 17:55:23;;;;;;;3.28;1.70;;;;;;;6.22;83.78;101757.97;5036697;28;20709;-49
2022/02/10 17:57:49;;;;;;;5.15;2.78;;;;;;;6.20;83.68;101757.34;5034671;28;20420;-51
2022/02/10 18:00:17;;;;;;;5.28;2.65;;;;;;;6.18;83.71;101757.56;5035544;28;20103;-49
2022/02/10 18:02:45;;;;;;;4.60;2.15;;;;;;;6.17;83.78;101755.91;5039456;28;20021;-50
2022/02/10 18:05:24;;;;;;;4.40;2.00;;;;;;;6.15;84.10;101755.28;5038115;28;20128;-50
2022/02/10 18:07:51;;;;;;;4.15;2.00;;;;;;;6.12;83.95;101750.34;5034307;28;20082;-53
2022/02/10 18:15:36;;;;;;;2.72;1.50;;;;;;;6.07;84.07;101750.09;5038905;28;20037;-49
2022/02/10 18:18:11;;;;;;;2.85;1.75;;;;;;;6.07;84.04;101752.75;5037277;28;20543;-52
2022/02/10 18:20:40;;;;;;;3.05;2.42;;;;;;;6.03;84.21;101751.50;5035037;28;20621;-51
2022/02/10 18:23:13;;;;;;;4.63;1.92;;;;;;;6.01;84.38;101753.53;5035791;28;20505;-51
2022/02/10 18:33:27;;;;;;;2.67;2.08;;;;;;;5.97;84.28;101753.09;5037051;28;20033;-50
2022/02/10 19:09:33;;;;;;;9.45;2.88;;;;;;;5.84;84.01;101776.06;5037985;28;20205;-50
2022/02/10 19:12:02;;;;;;;8.15;3.45;;;;;;;5.82;84.54;101781.59;5040597;28;20039;-51
2022/02/10 19:14:34;;;;;;;4.15;2.97;;;;;;;5.84;84.44;101781.41;5039330;28;20041;-51
2022/02/10 19:17:00;;;;;;;6.82;3.30;;;;;;;5.83;84.62;101772.59;5040206;28;20033;-52
2022/02/10 19:19:25;;;;;;;5.47;3.50;;;;;;;5.83;84.30;101774.44;5039126;28;20037;-52
2022/02/10 19:21:51;;;;;;;5.28;2.65;;;;;;;5.83;84.51;101772.59;5039956;28;20074;-50
2022/02/10 19:24:17;;;;;;;4.15;2.83;;;;;;;5.82;84.32;101775.44;5039532;28;20044;-51
2022/02/10 19:26:50;;;;;;;4.90;3.13;;;;;;;5.79;84.50;101778.50;5040767;28;20028;-52
2022/02/10 19:29:17;;;;;;;4.13;2.72;;;;;;;5.80;84.89;101783.63;5037998;28;20134;-51
2022/02/10 19:31:52;;;;;;;4.57;2.95;;;;;;;5.81;84.34;101776.47;5041140;28;20028;-50
2022/02/10 19:34:18;;;;;;;8.07;3.22;;;;;;;5.80;84.58;101783.63;5040499;28;20289;-49
2022/02/10 19:36:46;;;;;;;3.88;2.75;;;;;;;5.80;84.56;101778.31;5037427;28;20485;-50
2022/02/10 19:39:16;;;;;;;5.03;2.60;;;;;;;5.80;84.36;101783.63;5037763;28;20040;-49
2022/02/10 19:41:46;;;;;;;4.57;3.20;;;;;;;5.80;84.66;101777.47;5041204;28;20090;-50
2022/02/10 19:44:12;;;;;;;6.40;3.22;;;;;;;5.76;84.61;101779.72;5038541;28;20127;-51
2022/02/10 19:46:39;;;;;;;6.45;3.22;;;;;;;5.74;84.57;101774.59;5036937;28;20025;-50
2022/02/10 19:49:05;;;;;;;4.57;3.55;;;;;;;5.73;84.89;101777.41;5035515;28;20549;-48
2022/02/10 19:51:30;;;;;;;6.32;3.60;;;;;;;5.71;84.81;101780.25;5036425;28;20032;-49
2022/02/10 19:53:56;;;;;;;6.15;3.60;;;;;;;5.72;84.73;101781.91;5044530;28;20345;-49
2022/02/10 19:56:25;;;;;;;6.53;3.38;;;;;;;5.73;85.24;101786.19;5039257;28;20033;-48
2022/02/10 19:58:51;;;;;;;6.55;3.47;;;;;;;5.73;85.01;101780.06;5036163;28;20071;-51
2022/02/10 20:01:16;;;;;;;7.00;3.65;;;;;;;5.71;85.02;101780.25;5041050;28;20021;-50
2022/02/10 20:03:42;;;;;;;5.13;3.42;;;;;;;5.72;85.45;101792.53;5040148;28;20474;-48
2022/02/10 20:06:07;;;;;;;4.65;3.40;;;;;;;5.70;85.28;101783.94;5041633;28;20393;-50
2022/02/10 20:08:34;;;;;;;5.95;3.17;;;;;;;5.69;85.71;101776.97;5043278;28;20029;-50
2022/02/10 20:11:00;;;;;;;6.82;4.05;;;;;;;5.72;85.13;101775.75;5036423;28;20033;-48
2022/02/10 20:13:28;;;;;;;5.47;3.55;;;;;;;5.72;85.30;101779.25;5040981;28;20726;-49
2022/02/10 20:15:55;;;;;;;7.43;3.88;;;;;;;5.72;85.75;101781.06;5039052;28;20033;-51
2022/02/10 20:18:22;;;;;;;7.25;4.13;;;;;;;5.74;85.42;101781.72;5043115;28;20502;-50
2022/02/10 20:20:55;;;;;;;8.35;3.92;;;;;;;5.74;85.07;101784.38;5039344;28;20466;-49
2022/02/10 20:23:23;;;;;;;10.18;4.43;;;;;;;5.76;85.36;101783.19;5038777;28;20041;-49
2022/02/10 20:25:49;;;;;;;8.85;4.45;;;;;;;5.76;85.24;101783.19;5037162;28;20267;-49
2022/02/10 20:28:16;;;;;;;6.28;3.80;;;;;;;5.76;85.36;101785.84;5037353;28;20710;-50
2022/02/10 20:30:42;;;;;;;8.55;4.57;;;;;;;5.80;85.29;101782.81;5034695;28;20566;-49
2022/02/10 20:33:08;;;;;;;6.97;4.00;;;;;;;5.81;85.41;101776.47;5036131;28;20108;-49
2022/02/10 20:35:39;;;;;;;6.35;4.13;;;;;;;5.82;84.82;101781.59;5038151;28;20039;-48
2022/02/10 20:38:05;;;;;;;7.50;5.00;;;;;;;5.83;84.84;101785.06;5036647;28;20028;-50
2022/02/10 20:40:39;;;;;;;7.50;4.32;;;;;;;5.84;84.99;101784.06;5040003;28;20056;-50
2022/02/10 20:43:07;;;;;;;10.07;5.15;;;;;;;5.84;84.96;101784.06;5040893;28;20041;-52
2022/02/10 20:45:34;;;;;;;6.15;3.45;;;;;;;5.84;85.16;101784.06;5038691;28;20466;-47
2022/02/10 20:48:00;;;;;;;7.85;3.85;;;;;;;5.82;84.92;101780.78;5040783;28;20040;-49
2022/02/10 20:50:26;;;;;;;8.18;4.28;;;;;;;5.83;85.22;101782.41;5038778;28;20017;-49
2022/02/10 20:52:51;;;;;;;10.23;3.78;;;;;;;5.83;84.92;101775.25;5034810;28;20500;-50
2022/02/10 20:55:19;;;;;;;7.85;3.20;;;;;;;5.78;85.41;101790.97;5036998;28;20180;-49
2022/02/10 20:57:44;;;;;;;7.55;3.53;;;;;;;5.82;85.22;101786.91;5034515;28;20032;-49
2022/02/10 21:00:13;;;;;;;9.43;3.40;;;;;;;5.75;85.27;101784.19;5035318;28;20746;-52
2022/02/10 21:02:43;;;;;;;6.80;2.50;;;;;;;5.79;85.02;101786.47;5035947;28;20074;-51
2022/02/10 21:08:07;;;;;;;4.88;2.58;;;;;;;5.68;84.57;101788.63;5043773;28;20513;-54
2022/02/10 21:10:35;;;;;;;5.15;2.40;;;;;;;5.67;84.71;101792.28;5036313;28;20044;-53
2022/02/10 21:13:02;;;;;;;5.40;2.55;;;;;;;5.48;84.56;101782.28;5040169;28;20094;-56
2022/02/10 21:15:33;;;;;;;8.43;3.63;;;;;;;5.53;84.50;101785.19;5036932;28;20036;-54
2022/02/10 21:18:02;;;;;;;4.60;2.60;;;;;;;5.55;84.42;101783.16;5037260;28;20505;-53
2022/02/10 21:20:30;;;;;;;4.70;1.88;;;;;;;5.51;84.54;101784.56;5039757;28;20036;-53
2022/02/10 21:25:42;;;;;;;6.95;1.80;;;;;;;5.58;84.56;101782.81;5037120;28;20103;-52
2022/02/10 21:30:41;;;;;;;3.08;1.40;;;;;;;5.60;83.51;101788.75;5037957;28;20028;-55
2022/02/10 21:33:13;;;;;;;2.58;1.20;;;;;;;5.60;82.92;101799.41;5035718;28;20819;-54
2022/02/10 21:38:19;;;;;;;3.97;1.00;;;;;;;5.51;81.68;101794.38;5042279;28;20039;-52
2022/02/10 21:59:50;;;;;;;3.13;0.82;;;;;;;5.43;80.05;101776.72;5043961;28;20039;-76
2022/02/10 22:18:31;;;;;;;1.43;0.70;;;;;;;5.41;79.17;101792.03;5043837;28;20163;-76
2022/02/10 22:20:58;;;;;;;3.92;1.15;;;;;;;5.39;79.78;101784.25;5047648;28;21846;-76
2022/02/10 22:23:26;;;;;;;3.75;0.77;;;;;;;5.40;80.00;101782.44;5049498;28;20025;-76
2022/02/10 22:26:06;;;;;;;3.60;1.00;;;;;;;5.26;79.40;101783.28;5051206;28;20028;-76
2022/02/10 22:29:07;;;;;;;1.80;0.70;;;;;;;5.30;79.84;101789.88;5051179;28;20528;-76
2022/02/10 22:36:45;;;;;;;3.13;0.90;;;;;;;5.31;80.71;101791.50;5049092;28;20094;-76
2022/02/10 22:39:12;;;;;;;3.72;0.80;;;;;;;5.34;80.41;101799.09;5050010;28;20143;-76
2022/02/10 22:41:38;;;;;;;1.40;0.80;;;;;;;5.34;80.51;101801.75;5048538;28;20029;-75
2022/02/10 22:44:05;;;;;;;3.78;0.90;;;;;;;5.32;80.45;101809.09;5046134;28;20059;-76
2022/02/10 22:46:31;;;;;;;3.38;0.88;;;;;;;5.29;80.20;101807.63;5049211;28;20080;-76
2022/02/10 22:48:57;;;;;;;2.30;0.75;;;;;;;5.27;80.60;101809.66;5046596;28;20039;-76
2022/02/10 22:51:25;;;;;;;1.30;0.93;;;;;;;5.10;79.68;101813.53;5047112;28;20441;-75
2022/02/10 22:53:51;;;;;;;3.60;0.98;;;;;;;5.14;80.46;101815.63;5049713;28;20045;-76
2022/02/10 22:56:20;;;;;;;2.22;0.82;;;;;;;5.12;80.46;101812.34;5044481;28;20021;-75
2022/02/10 22:58:46;;;;;;;4.05;0.82;;;;;;;5.14;80.61;101810.31;5043785;28;20033;-76
2022/02/10 23:01:14;;;;;;;3.17;1.23;;;;;;;5.15;80.35;101814.63;5044425;28;21531;-76
2022/02/10 23:03:41;;;;;;;2.50;1.00;;;;;;;5.15;80.40;101811.97;5046320;28;20025;-76
2022/02/10 23:06:09;;;;;;;2.25;1.10;;;;;;;5.13;80.33;101814.00;5046046;28;20029;-76
2022/02/10 23:08:35;;;;;;;2.80;1.00;;;;;;;5.10;80.24;101825.00;5048375;28;22185;-76
2022/02/10 23:11:03;;;;;;;7.10;1.48;;;;;;;5.08;80.38;101816.41;5049789;28;20025;-76
2022/02/10 23:13:31;;;;;;;2.38;0.90;;;;;;;5.06;80.23;101813.09;5047132;28;20039;-76
2022/02/10 23:16:02;;;;;;;2.13;0.80;;;;;;;5.04;80.64;101819.63;5066173;28;20025;-76
2022/02/10 23:18:30;;;;;;;2.33;0.90;;;;;;;5.02;80.45;101816.28;5052919;28;20898;-76
2022/02/10 23:20:59;;;;;;;4.03;0.75;;;;;;;4.89;80.51;101810.84;5046876;28;20033;-77
2022/02/10 23:23:28;;;;;;;4.50;0.77;;;;;;;4.79;80.80;101817.22;5049776;28;20033;-76
2022/02/10 23:25:55;;;;;;;1.45;0.90;;;;;;;4.79;80.68;101821.72;5046103;28;20203;-76
2022/02/10 23:28:24;;;;;;;3.03;1.15;;;;;;;4.85;81.06;101823.66;5054066;28;20028;-76
2022/02/10 23:30:52;;;;;;;2.40;0.95;;;;;;;4.82;80.51;101818.69;5047383;28;20461;-76
2022/02/10 23:33:24;;;;;;;1.83;0.80;;;;;;;4.80;81.16;101815.41;5047124;28;20048;-76
2022/02/10 23:38:56;;;;;;;3.25;1.10;;;;;;;4.70;81.73;101806.91;5047153;28;20127;-76
2022/02/10 23:44:02;;;;;;;3.50;1.15;;;;;;;4.73;81.64;101811.84;5047479;28;20040;-76
2022/02/10 23:46:28;;;;;;;3.60;1.20;;;;;;;4.69;81.54;101813.22;5047726;28;20033;-76
2022/02/10 23:48:55;;;;;;;5.40;1.45;;;;;;;4.66;81.84;101814.38;5046442;28;20032;-76
2022/02/10 23:51:25;;;;;;;3.72;1.20;;;;;;;4.67;81.45;101828.47;5067750;22;20068;-50
2022/02/10 23:53:51;;;;;;;2.88;1.20;;;;;;;4.66;81.67;101827.66;5055024;28;20097;-50
2022/02/10 23:56:19;;;;;;;2.10;1.00;;;;;;;4.65;82.08;101827.84;5067513;28;20021;-49
2022/02/10 23:58:59;;;;;;;6.47;1.35;;;;;;;4.63;81.98;101837.81;5059604;28;20077;-49
